Detall de PIREP

Printer-friendly versionPDF version

[2010/12/06 08:49:00]
Flight IATA:CT2110
Pilot Number:042
Company ICAO:CAT
Aircraft Type:B738/F
PAX:120
Departing Airport: LEVC
Destination Airport: LEST
Alternate Airport:LEPA
Online: VATSIM
Route:CENTA A33 PRADO UN733 FORNO
Flight Level:FL310
No Slew and time accel
No pause
Crash detect
Detect pilot in Cockpit between each 30 and 45 minutes
08:49 Zero fuel Weight: 118700 Lbs, Fuel Weight: 46040 Lbs
08:49 VATSIM:LEVC 060830Z VRB02KT 9999 FEW040 13/10 Q1004 NOSIG
08:49 VATSIM:LEST 060830Z 24011KT 200V290 3500 RA BR SCT003 BKN006 BKN030 12/12 Q0995 NOSIG
08:49 VOICE CATALONIAN
08:50 Parking Brakes off
09:01 Take-off
09:01 Take off Weight: 163687 Lbs
09:01 Wind: 003 @ 002 Knots Heading: 293
09:01 POS N39 29 44 W000 29 54
09:01 Gear Up: 187 Knots
09:01 Flaps:4 at 187 Knots
09:01 Flaps:3 at 190 Knots
09:01 Flaps:2 at 199 Knots
09:02 Flaps:1 at 146 Knots
09:02 Flaps:0 at 219 Knots
09:16 Wind:226@040 Knots Heading: 291 Ground Speed: 426 Knots Altitude 25078 ft
09:20 TOC
09:20 Fuel Weight: 40965 Lb
09:31 Wind:216@056 Knots Heading: 287 Ground Speed: 442 Knots Altitude 30705 ft
09:39 TOD
09:39 Fuel Weight: 38958 Lb
09:46 Wind:217@045 Knots Heading: 295 Ground Speed: 351 Knots Altitude 23349 ft
10:01 Wind:242@028 Knots Heading: 295 Ground Speed: 252 Knots Altitude 9973 ft
10:01 Flaps:1 at 218 Knots
10:08 Flaps:2 at 208 Knots
10:10 Flaps:3 at 184 Knots
10:13 Flaps:4 at 177 Knots
10:15 Gear Down: 175 Knots
10:15 Flaps:5 at 176 Knots
10:16 Wind:251@022 Knots Heading: 263 Ground Speed: 157 Knots Altitude 4222 ft
10:17 Flaps:6 at 152 Knots
10:17 Flaps:7 at 151 Knots
10:18 Flaps:8 at 143 Knots
10:22 TouchDown:Rate -232 ft/min Speed: 134 Knots
10:22 VATSIM:LEST 061000Z 24011KT 200V280 8000 FEW006 SCT012 BKN030 11/11 Q0997 NOSIG
10:22 Land
10:22 Wind:249@011 Knots
10:22 Heading: 167
10:22 Flight Duration: 01:21
10:22 Landing Weight: 154891 Lbs
10:22 POS N42 53 54 W008 24 57
10:26 Parking brakes on
10:26 Block to Block Duration: 01:36
10:26 Final Fuel: 35524 Lbls
10:26 Spent Fuel: 10515 Lbls
10:26 Flight Length: 371 NM
10:26 TOD Land Length: 120 NM

Exportar CSV

Powered by Drupal - Modified by Danger4k